Otter Lake, New York
Current Conditions -  °F | °C
As of 7:53 PM on Friday 21 Nov 2014 (Local Time) from KRME Reporting Station
Overcast Overcast  
Wind Chill: 21°   Ceiling: 5500
Heat Index: 21°   Visibility: 10mi
Dew Point: 17°   Wind: 0mph
Humidity: 85%   Direction: NA
Pressure: 30.44"   Gusts: NA
Location:  43.501°N, 75.1602°W
Report Text: KRME 220053Z 00000KT 10SM BKN055 OVC070 M06/M08 A3044 RMK AO2 SLP313 T10611083
Loading
Personal Weather Stations






























Interactive Weather Map New forecast layout! Learn more

10-Day Weather Forecast

Advertisements
Track Severe Weather on mobile